sensor_id;sensor_type;location;lat;lon;timestamp;temperature;humidity
33645;DHT22;19986;48.190;16.366;2023-11-18T00:01:24;9.10;99.90
33645;DHT22;19986;48.190;16.366;2023-11-18T00:03:50;9.10;99.90
33645;DHT22;19986;48.190;16.366;2023-11-18T00:06:16;9.10;99.90
33645;DHT22;19986;48.190;16.366;2023-11-18T00:08:42;9.10;99.90
33645;DHT22;19986;48.190;16.366;2023-11-18T00:11:09;9.00;99.90
33645;DHT22;19986;48.190;16.366;2023-11-18T00:13:37;9.00;99.90
33645;DHT22;19986;48.190;16.366;2023-11-18T00:16:09;9.00;99.90
33645;DHT22;19986;48.190;16.366;2023-11-18T00:18:39;9.00;99.90
33645;DHT22;19986;48.190;16.366;2023-11-18T00:21:06;9.00;99.90
33645;DHT22;19986;48.190;16.366;2023-11-18T00:23:31;9.00;99.90
33645;DHT22;19986;48.190;16.366;2023-11-18T00:25:57;9.00;99.90
33645;DHT22;19986;48.190;16.366;2023-11-18T00:28:23;9.00;99.90
33645;DHT22;19986;48.190;16.366;2023-11-18T00:30:49;9.10;99.90
33645;DHT22;19986;48.190;16.366;2023-11-18T00:33:15;9.10;99.90
33645;DHT22;19986;48.190;16.366;2023-11-18T00:35:41;9.20;99.90
33645;DHT22;19986;48.190;16.366;2023-11-18T00:38:07;9.10;99.90
33645;DHT22;19986;48.190;16.366;2023-11-18T00:40:32;9.00;99.90
33645;DHT22;19986;48.190;16.366;2023-11-18T00:42:58;9.10;99.90
33645;DHT22;19986;48.190;16.366;2023-11-18T00:45:24;9.00;99.90
33645;DHT22;19986;48.190;16.366;2023-11-18T00:47:50;9.00;99.90
33645;DHT22;19986;48.190;16.366;2023-11-18T00:50:16;9.00;99.90
33645;DHT22;19986;48.190;16.366;2023-11-18T00:52:43;9.10;99.90
33645;DHT22;19986;48.190;16.366;2023-11-18T00:55:09;9.10;99.90
33645;DHT22;19986;48.190;16.366;2023-11-18T00:57:37;9.20;99.90
33645;DHT22;19986;48.190;16.366;2023-11-18T01:00:08;9.20;99.90
33645;DHT22;19986;48.190;16.366;2023-11-18T01:02:40;9.10;99.90
33645;DHT22;19986;48.190;16.366;2023-11-18T01:05:06;9.10;99.90
33645;DHT22;19986;48.190;16.366;2023-11-18T01:07:39;9.00;99.90
33645;DHT22;19986;48.190;16.366;2023-11-18T01:10:06;9.00;99.90
33645;DHT22;19986;48.190;16.366;2023-11-18T01:12:33;9.00;99.90
33645;DHT22;19986;48.190;16.366;2023-11-18T01:14:59;9.00;99.90
33645;DHT22;19986;48.190;16.366;2023-11-18T01:17:25;9.00;99.90
33645;DHT22;19986;48.190;16.366;2023-11-18T01:19:51;8.90;99.90
33645;DHT22;19986;48.190;16.366;2023-11-18T01:22:17;8.90;99.90
33645;DHT22;19986;48.190;16.366;2023-11-18T01:24:44;8.90;99.90
33645;DHT22;19986;48.190;16.366;2023-11-18T01:27:10;8.80;99.90
33645;DHT22;19986;48.190;16.366;2023-11-18T01:29:37;8.70;99.90
33645;DHT22;19986;48.190;16.366;2023-11-18T01:32:03;8.60;99.90
33645;DHT22;19986;48.190;16.366;2023-11-18T01:34:38;8.60;99.90
33645;DHT22;19986;48.190;16.366;2023-11-18T01:37:09;8.50;99.90
33645;DHT22;19986;48.190;16.366;2023-11-18T01:39:35;8.50;99.90
33645;DHT22;19986;48.190;16.366;2023-11-18T01:42:05;8.50;99.90
33645;DHT22;19986;48.190;16.366;2023-11-18T01:44:31;8.50;99.90
33645;DHT22;19986;48.190;16.366;2023-11-18T01:46:59;8.50;99.90
33645;DHT22;19986;48.190;16.366;2023-11-18T01:49:29;8.40;99.90
33645;DHT22;19986;48.190;16.366;2023-11-18T01:51:55;8.40;99.90
33645;DHT22;19986;48.190;16.366;2023-11-18T01:54:23;8.30;99.90
33645;DHT22;19986;48.190;16.366;2023-11-18T01:56:49;8.40;99.90
33645;DHT22;19986;48.190;16.366;2023-11-18T01:59:16;8.40;99.90
33645;DHT22;19986;48.190;16.366;2023-11-18T02:01:53;8.40;99.90
33645;DHT22;19986;48.190;16.366;2023-11-18T02:04:20;8.50;99.90
33645;DHT22;19986;48.190;16.366;2023-11-18T02:06:50;8.50;99.90
33645;DHT22;19986;48.190;16.366;2023-11-18T02:09:18;8.50;99.90
33645;DHT22;19986;48.190;16.366;2023-11-18T02:14:39;8.60;99.90
33645;DHT22;19986;48.190;16.366;2023-11-18T02:17:05;8.50;99.90
33645;DHT22;19986;48.190;16.366;2023-11-18T02:19:35;8.50;99.90
33645;DHT22;19986;48.190;16.366;2023-11-18T02:22:03;8.60;99.90
33645;DHT22;19986;48.190;16.366;2023-11-18T02:24:33;8.60;99.90
33645;DHT22;19986;48.190;16.366;2023-11-18T02:27:04;8.60;99.90
33645;DHT22;19986;48.190;16.366;2023-11-18T02:29:38;8.50;99.90
33645;DHT22;19986;48.190;16.366;2023-11-18T02:37:32;8.70;99.90
33645;DHT22;19986;48.190;16.366;2023-11-18T02:40:04;8.50;99.90
33645;DHT22;19986;48.190;16.366;2023-11-18T02:42:44;8.50;99.90
33645;DHT22;19986;48.190;16.366;2023-11-18T02:45:13;8.40;99.90
33645;DHT22;19986;48.190;16.366;2023-11-18T02:47:44;8.40;99.90
33645;DHT22;19986;48.190;16.366;2023-11-18T02:50:10;8.40;99.90
33645;DHT22;19986;48.190;16.366;2023-11-18T02:52:38;8.40;99.90
33645;DHT22;19986;48.190;16.366;2023-11-18T02:55:06;8.40;99.90
33645;DHT22;19986;48.190;16.366;2023-11-18T02:57:35;8.50;99.90
33645;DHT22;19986;48.190;16.366;2023-11-18T03:00:04;8.50;99.90
33645;DHT22;19986;48.190;16.366;2023-11-18T03:02:31;8.40;99.90
33645;DHT22;19986;48.190;16.366;2023-11-18T03:04:58;8.40;99.90
33645;DHT22;19986;48.190;16.366;2023-11-18T03:07:24;8.40;99.90
33645;DHT22;19986;48.190;16.366;2023-11-18T03:09:53;8.40;99.90
33645;DHT22;19986;48.190;16.366;2023-11-18T03:12:22;8.50;99.90
33645;DHT22;19986;48.190;16.366;2023-11-18T03:14:48;8.50;99.90
33645;DHT22;19986;48.190;16.366;2023-11-18T03:17:14;8.60;99.90
33645;DHT22;19986;48.190;16.366;2023-11-18T03:19:40;8.50;99.90
33645;DHT22;19986;48.190;16.366;2023-11-18T03:22:07;8.70;99.90
33645;DHT22;19986;48.190;16.366;2023-11-18T03:24:33;8.70;99.90
33645;DHT22;19986;48.190;16.366;2023-11-18T03:26:59;8.80;99.90
33645;DHT22;19986;48.190;16.366;2023-11-18T03:29:25;8.80;99.90
33645;DHT22;19986;48.190;16.366;2023-11-18T03:31:51;8.80;99.90
33645;DHT22;19986;48.190;16.366;2023-11-18T03:34:18;8.70;99.90
33645;DHT22;19986;48.190;16.366;2023-11-18T03:36:46;8.80;99.90
33645;DHT22;19986;48.190;16.366;2023-11-18T03:39:13;8.90;99.90
33645;DHT22;19986;48.190;16.366;2023-11-18T03:41:40;8.90;99.90
33645;DHT22;19986;48.190;16.366;2023-11-18T03:44:12;8.90;99.90
33645;DHT22;19986;48.190;16.366;2023-11-18T03:46:38;8.90;99.90
33645;DHT22;19986;48.190;16.366;2023-11-18T03:49:04;9.00;99.90
33645;DHT22;19986;48.190;16.366;2023-11-18T03:51:30;9.00;99.90
33645;DHT22;19986;48.190;16.366;2023-11-18T03:53:56;9.00;99.90
33645;DHT22;19986;48.190;16.366;2023-11-18T03:56:22;9.10;99.90
33645;DHT22;19986;48.190;16.366;2023-11-18T03:58:48;9.10;99.90
33645;DHT22;19986;48.190;16.366;2023-11-18T04:01:21;9.00;99.90
33645;DHT22;19986;48.190;16.366;2023-11-18T04:03:47;8.90;99.90
33645;DHT22;19986;48.190;16.366;2023-11-18T04:06:13;8.90;99.90
33645;DHT22;19986;48.190;16.366;2023-11-18T04:08:46;8.90;99.90
33645;DHT22;19986;48.190;16.366;2023-11-18T04:11:15;8.90;99.90
33645;DHT22;19986;48.190;16.366;2023-11-18T04:13:41;8.90;99.90
33645;DHT22;19986;48.190;16.366;2023-11-18T04:16:11;8.90;99.90
33645;DHT22;19986;48.190;16.366;2023-11-18T04:18:45;9.00;99.90
33645;DHT22;19986;48.190;16.366;2023-11-18T04:21:12;9.00;99.90
33645;DHT22;19986;48.190;16.366;2023-11-18T04:23:40;9.10;99.90
33645;DHT22;19986;48.190;16.366;2023-11-18T04:26:07;9.00;99.90
33645;DHT22;19986;48.190;16.366;2023-11-18T04:28:36;8.90;99.90
33645;DHT22;19986;48.190;16.366;2023-11-18T04:31:02;8.90;99.90
33645;DHT22;19986;48.190;16.366;2023-11-18T04:33:29;8.90;99.90
33645;DHT22;19986;48.190;16.366;2023-11-18T04:35:55;8.80;99.90
33645;DHT22;19986;48.190;16.366;2023-11-18T04:38:24;8.90;99.90
33645;DHT22;19986;48.190;16.366;2023-11-18T04:40:51;8.90;99.90
33645;DHT22;19986;48.190;16.366;2023-11-18T04:43:22;8.80;99.90
33645;DHT22;19986;48.190;16.366;2023-11-18T04:45:49;8.90;99.90
33645;DHT22;19986;48.190;16.366;2023-11-18T04:48:15;8.90;99.90
33645;DHT22;19986;48.190;16.366;2023-11-18T04:50:43;8.80;99.90
33645;DHT22;19986;48.190;16.366;2023-11-18T04:53:09;8.80;99.90
33645;DHT22;19986;48.190;16.366;2023-11-18T04:55:37;8.80;99.90
33645;DHT22;19986;48.190;16.366;2023-11-18T04:58:03;8.80;99.90
33645;DHT22;19986;48.190;16.366;2023-11-18T05:00:34;8.70;99.90
33645;DHT22;19986;48.190;16.366;2023-11-18T05:03:00;8.70;99.90
33645;DHT22;19986;48.190;16.366;2023-11-18T05:05:26;8.70;99.90
33645;DHT22;19986;48.190;16.366;2023-11-18T05:07:52;8.80;99.90
33645;DHT22;19986;48.190;16.366;2023-11-18T05:10:18;8.80;99.90
33645;DHT22;19986;48.190;16.366;2023-11-18T05:12:44;8.80;99.90
33645;DHT22;19986;48.190;16.366;2023-11-18T05:15:10;8.80;99.90
33645;DHT22;19986;48.190;16.366;2023-11-18T05:17:39;8.70;99.90
33645;DHT22;19986;48.190;16.366;2023-11-18T05:20:06;8.70;99.90
33645;DHT22;19986;48.190;16.366;2023-11-18T05:22:36;8.70;99.90
33645;DHT22;19986;48.190;16.366;2023-11-18T05:25:03;8.70;99.90
33645;DHT22;19986;48.190;16.366;2023-11-18T05:27:31;8.60;99.90
33645;DHT22;19986;48.190;16.366;2023-11-18T05:29:57;8.60;99.90
33645;DHT22;19986;48.190;16.366;2023-11-18T05:32:29;8.60;99.90
33645;DHT22;19986;48.190;16.366;2023-11-18T05:34:56;8.70;99.90
33645;DHT22;19986;48.190;16.366;2023-11-18T05:37:24;8.70;99.90
33645;DHT22;19986;48.190;16.366;2023-11-18T05:39:50;8.70;99.90
33645;DHT22;19986;48.190;16.366;2023-11-18T05:42:27;8.60;99.90
33645;DHT22;19986;48.190;16.366;2023-11-18T05:44:53;8.60;99.90
33645;DHT22;19986;48.190;16.366;2023-11-18T05:47:28;8.60;99.90
33645;DHT22;19986;48.190;16.366;2023-11-18T05:49:54;8.60;99.90
33645;DHT22;19986;48.190;16.366;2023-11-18T05:52:21;8.60;99.90
33645;DHT22;19986;48.190;16.366;2023-11-18T05:54:48;8.70;99.90
33645;DHT22;19986;48.190;16.366;2023-11-18T05:57:17;8.70;99.90
33645;DHT22;19986;48.190;16.366;2023-11-18T05:59:44;8.70;99.90
33645;DHT22;19986;48.190;16.366;2023-11-18T06:02:10;8.80;99.90
33645;DHT22;19986;48.190;16.366;2023-11-18T06:04:44;8.80;99.90
33645;DHT22;19986;48.190;16.366;2023-11-18T06:07:10;8.80;99.90
33645;DHT22;19986;48.190;16.366;2023-11-18T06:09:40;8.80;99.90
33645;DHT22;19986;48.190;16.366;2023-11-18T06:12:08;8.90;99.90
33645;DHT22;19986;48.190;16.366;2023-11-18T06:14:37;8.90;99.90
33645;DHT22;19986;48.190;16.366;2023-11-18T06:17:03;8.80;99.90
33645;DHT22;19986;48.190;16.366;2023-11-18T06:19:29;8.90;99.90
33645;DHT22;19986;48.190;16.366;2023-11-18T06:21:55;8.90;99.90
33645;DHT22;19986;48.190;16.366;2023-11-18T06:24:21;8.90;99.90
33645;DHT22;19986;48.190;16.366;2023-11-18T06:26:48;8.90;99.90
33645;DHT22;19986;48.190;16.366;2023-11-18T06:29:15;8.90;99.90
33645;DHT22;19986;48.190;16.366;2023-11-18T06:31:41;8.80;99.90
33645;DHT22;19986;48.190;16.366;2023-11-18T06:34:11;8.90;99.90
33645;DHT22;19986;48.190;16.366;2023-11-18T06:36:38;8.90;99.90
33645;DHT22;19986;48.190;16.366;2023-11-18T06:39:04;8.90;99.90
33645;DHT22;19986;48.190;16.366;2023-11-18T06:41:32;8.90;99.90
33645;DHT22;19986;48.190;16.366;2023-11-18T06:44:03;8.90;99.90
33645;DHT22;19986;48.190;16.366;2023-11-18T06:46:38;8.80;99.90
33645;DHT22;19986;48.190;16.366;2023-11-18T06:49:05;8.80;99.90
33645;DHT22;19986;48.190;16.366;2023-11-18T06:51:36;8.90;99.90
33645;DHT22;19986;48.190;16.366;2023-11-18T06:54:04;8.90;99.90
33645;DHT22;19986;48.190;16.366;2023-11-18T06:56:43;8.90;99.90
33645;DHT22;19986;48.190;16.366;2023-11-18T06:59:10;9.00;99.90
33645;DHT22;19986;48.190;16.366;2023-11-18T07:01:38;9.00;99.90
33645;DHT22;19986;48.190;16.366;2023-11-18T07:04:06;9.00;99.90
33645;DHT22;19986;48.190;16.366;2023-11-18T07:06:34;8.90;99.90
33645;DHT22;19986;48.190;16.366;2023-11-18T07:09:05;9.00;99.90
33645;DHT22;19986;48.190;16.366;2023-11-18T07:11:40;9.00;99.90
33645;DHT22;19986;48.190;16.366;2023-11-18T07:14:07;9.00;99.90
33645;DHT22;19986;48.190;16.366;2023-11-18T07:16:35;9.10;99.90
33645;DHT22;19986;48.190;16.366;2023-11-18T07:19:01;9.10;99.90
33645;DHT22;19986;48.190;16.366;2023-11-18T07:21:29;9.10;99.90
33645;DHT22;19986;48.190;16.366;2023-11-18T07:23:55;9.20;99.90
33645;DHT22;19986;48.190;16.366;2023-11-18T07:26:22;9.10;99.90
33645;DHT22;19986;48.190;16.366;2023-11-18T07:28:50;9.10;99.90
33645;DHT22;19986;48.190;16.366;2023-11-18T07:31:18;9.20;99.90
33645;DHT22;19986;48.190;16.366;2023-11-18T07:33:45;9.10;99.90
33645;DHT22;19986;48.190;16.366;2023-11-18T07:36:18;9.20;99.90
33645;DHT22;19986;48.190;16.366;2023-11-18T07:38:48;9.20;99.90
33645;DHT22;19986;48.190;16.366;2023-11-18T07:41:17;9.20;99.90
33645;DHT22;19986;48.190;16.366;2023-11-18T07:43:55;9.30;99.90
33645;DHT22;19986;48.190;16.366;2023-11-18T07:46:27;9.30;99.90
33645;DHT22;19986;48.190;16.366;2023-11-18T07:48:54;9.40;99.90
33645;DHT22;19986;48.190;16.366;2023-11-18T07:51:21;9.30;99.90
33645;DHT22;19986;48.190;16.366;2023-11-18T07:53:48;9.40;99.90
33645;DHT22;19986;48.190;16.366;2023-11-18T07:56:15;9.40;99.90
33645;DHT22;19986;48.190;16.366;2023-11-18T07:58:45;9.40;99.90
33645;DHT22;19986;48.190;16.366;2023-11-18T08:01:14;9.50;99.90
33645;DHT22;19986;48.190;16.366;2023-11-18T08:03:44;9.40;99.90
33645;DHT22;19986;48.190;16.366;2023-11-18T08:06:10;9.50;99.90
33645;DHT22;19986;48.190;16.366;2023-11-18T08:08:38;9.40;99.90
33645;DHT22;19986;48.190;16.366;2023-11-18T08:11:07;9.40;99.90
33645;DHT22;19986;48.190;16.366;2023-11-18T08:13:33;9.40;99.90
33645;DHT22;19986;48.190;16.366;2023-11-18T08:15:59;9.40;99.90
33645;DHT22;19986;48.190;16.366;2023-11-18T08:18:25;9.40;99.90
33645;DHT22;19986;48.190;16.366;2023-11-18T08:20:53;9.40;99.90
33645;DHT22;19986;48.190;16.366;2023-11-18T08:23:18;9.40;99.90
33645;DHT22;19986;48.190;16.366;2023-11-18T08:25:45;9.50;99.90
33645;DHT22;19986;48.190;16.366;2023-11-18T08:28:12;9.50;99.90
33645;DHT22;19986;48.190;16.366;2023-11-18T08:30:39;9.50;99.90
33645;DHT22;19986;48.190;16.366;2023-11-18T08:33:05;9.50;99.90
33645;DHT22;19986;48.190;16.366;2023-11-18T08:35:35;9.60;99.90
33645;DHT22;19986;48.190;16.366;2023-11-18T08:38:01;9.70;99.90
33645;DHT22;19986;48.190;16.366;2023-11-18T08:40:30;9.70;99.90
33645;DHT22;19986;48.190;16.366;2023-11-18T08:42:56;9.80;99.90
33645;DHT22;19986;48.190;16.366;2023-11-18T08:45:28;9.80;99.90
33645;DHT22;19986;48.190;16.366;2023-11-18T08:48:02;9.70;99.90
33645;DHT22;19986;48.190;16.366;2023-11-18T08:50:29;9.60;99.90
33645;DHT22;19986;48.190;16.366;2023-11-18T08:52:56;9.70;99.90
33645;DHT22;19986;48.190;16.366;2023-11-18T08:55:30;9.70;99.90
33645;DHT22;19986;48.190;16.366;2023-11-18T08:58:09;9.80;99.90
33645;DHT22;19986;48.190;16.366;2023-11-18T09:00:52;9.80;99.90
33645;DHT22;19986;48.190;16.366;2023-11-18T09:03:20;9.80;99.90
33645;DHT22;19986;48.190;16.366;2023-11-18T09:06:06;9.80;99.90
33645;DHT22;19986;48.190;16.366;2023-11-18T09:08:46;9.80;99.90
33645;DHT22;19986;48.190;16.366;2023-11-18T09:11:18;9.90;99.90
33645;DHT22;19986;48.190;16.366;2023-11-18T09:13:47;10.00;99.90
33645;DHT22;19986;48.190;16.366;2023-11-18T09:16:15;9.90;99.90
33645;DHT22;19986;48.190;16.366;2023-11-18T09:18:43;9.90;99.90
33645;DHT22;19986;48.190;16.366;2023-11-18T09:21:12;10.00;99.90
33645;DHT22;19986;48.190;16.366;2023-11-18T09:23:46;10.10;99.90
33645;DHT22;19986;48.190;16.366;2023-11-18T09:26:13;10.30;99.90
33645;DHT22;19986;48.190;16.366;2023-11-18T09:28:40;10.30;99.90
33645;DHT22;19986;48.190;16.366;2023-11-18T09:31:06;10.30;99.90
33645;DHT22;19986;48.190;16.366;2023-11-18T09:33:38;10.30;99.90
33645;DHT22;19986;48.190;16.366;2023-11-18T09:36:07;10.30;99.90
33645;DHT22;19986;48.190;16.366;2023-11-18T09:38:35;10.40;99.90
33645;DHT22;19986;48.190;16.366;2023-11-18T09:41:08;10.30;99.90
33645;DHT22;19986;48.190;16.366;2023-11-18T09:43:46;10.40;99.90
33645;DHT22;19986;48.190;16.366;2023-11-18T09:46:22;10.40;99.90
33645;DHT22;19986;48.190;16.366;2023-11-18T09:48:55;10.40;99.90
33645;DHT22;19986;48.190;16.366;2023-11-18T09:51:28;10.50;99.90
33645;DHT22;19986;48.190;16.366;2023-11-18T09:54:05;10.50;99.90
33645;DHT22;19986;48.190;16.366;2023-11-18T10:00:11;10.40;99.90
33645;DHT22;19986;48.190;16.366;2023-11-18T10:02:53;10.30;99.90
33645;DHT22;19986;48.190;16.366;2023-11-18T10:05:22;10.20;99.90
33645;DHT22;19986;48.190;16.366;2023-11-18T10:07:49;10.20;99.90
33645;DHT22;19986;48.190;16.366;2023-11-18T10:10:19;10.30;99.90
33645;DHT22;19986;48.190;16.366;2023-11-18T10:12:48;10.20;99.90
33645;DHT22;19986;48.190;16.366;2023-11-18T10:15:24;10.10;99.90
33645;DHT22;19986;48.190;16.366;2023-11-18T10:17:52;10.10;99.90
33645;DHT22;19986;48.190;16.366;2023-11-18T10:23:11;10.30;99.90
33645;DHT22;19986;48.190;16.366;2023-11-18T10:25:54;10.40;99.90
33645;DHT22;19986;48.190;16.366;2023-11-18T10:28:27;10.50;99.90
33645;DHT22;19986;48.190;16.366;2023-11-18T10:30:58;10.60;99.90
33645;DHT22;19986;48.190;16.366;2023-11-18T10:33:27;10.60;99.90
33645;DHT22;19986;48.190;16.366;2023-11-18T10:35:59;10.70;99.90
33645;DHT22;19986;48.190;16.366;2023-11-18T10:38:38;10.80;99.90
33645;DHT22;19986;48.190;16.366;2023-11-18T10:41:09;10.80;99.90
33645;DHT22;19986;48.190;16.366;2023-11-18T10:43:37;10.70;99.90
33645;DHT22;19986;48.190;16.366;2023-11-18T10:46:06;10.60;99.90
33645;DHT22;19986;48.190;16.366;2023-11-18T10:48:48;10.60;99.90
33645;DHT22;19986;48.190;16.366;2023-11-18T10:51:15;10.70;99.90
33645;DHT22;19986;48.190;16.366;2023-11-18T10:53:56;10.60;99.90
33645;DHT22;19986;48.190;16.366;2023-11-18T10:56:24;10.50;99.90
33645;DHT22;19986;48.190;16.366;2023-11-18T10:58:58;10.40;99.90
33645;DHT22;19986;48.190;16.366;2023-11-18T11:01:32;10.30;99.90
33645;DHT22;19986;48.190;16.366;2023-11-18T11:03:59;10.40;99.90
33645;DHT22;19986;48.190;16.366;2023-11-18T11:06:26;10.40;99.90
33645;DHT22;19986;48.190;16.366;2023-11-18T11:08:57;10.40;99.90
33645;DHT22;19986;48.190;16.366;2023-11-18T11:11:32;10.30;99.90
33645;DHT22;19986;48.190;16.366;2023-11-18T11:14:03;10.40;99.90
33645;DHT22;19986;48.190;16.366;2023-11-18T11:16:56;10.40;99.90
33645;DHT22;19986;48.190;16.366;2023-11-18T11:22:04;10.50;99.90
33645;DHT22;19986;48.190;16.366;2023-11-18T11:27:50;10.70;99.90
33645;DHT22;19986;48.190;16.366;2023-11-18T11:30:29;10.70;99.90
33645;DHT22;19986;48.190;16.366;2023-11-18T11:33:14;10.60;99.90
33645;DHT22;19986;48.190;16.366;2023-11-18T11:35:48;10.60;99.90
33645;DHT22;19986;48.190;16.366;2023-11-18T11:38:18;10.50;99.90
33645;DHT22;19986;48.190;16.366;2023-11-18T11:40:48;10.60;99.90
33645;DHT22;19986;48.190;16.366;2023-11-18T11:43:16;10.70;99.90
33645;DHT22;19986;48.190;16.366;2023-11-18T11:45:50;10.70;99.90
33645;DHT22;19986;48.190;16.366;2023-11-18T11:48:24;10.80;99.90
33645;DHT22;19986;48.190;16.366;2023-11-18T11:53:36;10.70;99.90
33645;DHT22;19986;48.190;16.366;2023-11-18T11:56:11;10.60;99.90
33645;DHT22;19986;48.190;16.366;2023-11-18T11:58:41;10.60;99.90
33645;DHT22;19986;48.190;16.366;2023-11-18T12:01:35;10.50;99.90
33645;DHT22;19986;48.190;16.366;2023-11-18T12:04:08;10.60;99.90
33645;DHT22;19986;48.190;16.366;2023-11-18T12:06:47;10.50;99.90
33645;DHT22;19986;48.190;16.366;2023-11-18T12:09:13;10.30;99.90
33645;DHT22;19986;48.190;16.366;2023-11-18T12:11:46;10.30;99.90
33645;DHT22;19986;48.190;16.366;2023-11-18T12:14:15;10.40;99.90
33645;DHT22;19986;48.190;16.366;2023-11-18T12:17:06;10.50;99.90
33645;DHT22;19986;48.190;16.366;2023-11-18T12:19:37;10.50;99.90
33645;DHT22;19986;48.190;16.366;2023-11-18T12:22:14;10.40;99.90
33645;DHT22;19986;48.190;16.366;2023-11-18T12:33:04;10.40;99.90
33645;DHT22;19986;48.190;16.366;2023-11-18T12:41:38;10.50;99.90
33645;DHT22;19986;48.190;16.366;2023-11-18T12:46:52;10.40;99.90
33645;DHT22;19986;48.190;16.366;2023-11-18T12:49:20;10.50;99.90
33645;DHT22;19986;48.190;16.366;2023-11-18T12:51:53;10.40;99.90
33645;DHT22;19986;48.190;16.366;2023-11-18T12:54:20;10.40;99.90
33645;DHT22;19986;48.190;16.366;2023-11-18T12:56:47;10.50;99.90
33645;DHT22;19986;48.190;16.366;2023-11-18T12:59:16;10.50;99.90
33645;DHT22;19986;48.190;16.366;2023-11-18T13:01:44;10.60;99.90
33645;DHT22;19986;48.190;16.366;2023-11-18T13:04:17;10.60;99.90
33645;DHT22;19986;48.190;16.366;2023-11-18T13:06:46;10.60;99.90
33645;DHT22;19986;48.190;16.366;2023-11-18T13:09:14;10.60;99.90
33645;DHT22;19986;48.190;16.366;2023-11-18T13:11:53;10.70;99.90
33645;DHT22;19986;48.190;16.366;2023-11-18T13:14:26;10.80;99.90
33645;DHT22;19986;48.190;16.366;2023-11-18T13:16:53;10.80;99.90
33645;DHT22;19986;48.190;16.366;2023-11-18T13:19:29;10.80;99.90
33645;DHT22;19986;48.190;16.366;2023-11-18T13:21:59;10.70;99.90
33645;DHT22;19986;48.190;16.366;2023-11-18T13:24:28;10.60;99.90
33645;DHT22;19986;48.190;16.366;2023-11-18T13:26:56;10.50;99.90
33645;DHT22;19986;48.190;16.366;2023-11-18T13:29:23;10.50;99.90
33645;DHT22;19986;48.190;16.366;2023-11-18T13:31:52;10.40;99.90
33645;DHT22;19986;48.190;16.366;2023-11-18T13:34:19;10.20;99.90
33645;DHT22;19986;48.190;16.366;2023-11-18T13:36:47;10.20;99.90
33645;DHT22;19986;48.190;16.366;2023-11-18T13:39:23;10.20;99.90
33645;DHT22;19986;48.190;16.366;2023-11-18T13:41:52;10.20;99.90
33645;DHT22;19986;48.190;16.366;2023-11-18T13:44:35;10.10;99.90
33645;DHT22;19986;48.190;16.366;2023-11-18T13:47:07;10.20;99.90
33645;DHT22;19986;48.190;16.366;2023-11-18T13:49:33;10.20;99.90
33645;DHT22;19986;48.190;16.366;2023-11-18T13:52:02;10.10;99.90
33645;DHT22;19986;48.190;16.366;2023-11-18T13:54:29;10.10;99.90
33645;DHT22;19986;48.190;16.366;2023-11-18T13:56:58;10.00;99.90
33645;DHT22;19986;48.190;16.366;2023-11-18T13:59:25;9.90;99.90
33645;DHT22;19986;48.190;16.366;2023-11-18T14:01:55;9.90;99.90
33645;DHT22;19986;48.190;16.366;2023-11-18T14:04:29;9.80;99.90
33645;DHT22;19986;48.190;16.366;2023-11-18T14:07:00;9.80;99.90
33645;DHT22;19986;48.190;16.366;2023-11-18T14:09:30;9.80;99.90
33645;DHT22;19986;48.190;16.366;2023-11-18T14:11:57;9.80;99.90
33645;DHT22;19986;48.190;16.366;2023-11-18T14:14:24;9.90;99.90
33645;DHT22;19986;48.190;16.366;2023-11-18T14:16:51;9.90;99.90
33645;DHT22;19986;48.190;16.366;2023-11-18T14:19:24;9.80;99.90
33645;DHT22;19986;48.190;16.366;2023-11-18T14:21:56;9.80;99.90
33645;DHT22;19986;48.190;16.366;2023-11-18T14:24:23;9.80;99.90
33645;DHT22;19986;48.190;16.366;2023-11-18T14:26:49;9.80;99.90
33645;DHT22;19986;48.190;16.366;2023-11-18T14:29:16;9.80;99.90
33645;DHT22;19986;48.190;16.366;2023-11-18T14:31:42;9.90;99.90
33645;DHT22;19986;48.190;16.366;2023-11-18T14:34:07;9.90;99.90
33645;DHT22;19986;48.190;16.366;2023-11-18T14:36:38;9.90;99.90
33645;DHT22;19986;48.190;16.366;2023-11-18T14:39:04;9.90;99.90
33645;DHT22;19986;48.190;16.366;2023-11-18T14:41:31;9.90;99.90
33645;DHT22;19986;48.190;16.366;2023-11-18T14:43:57;10.00;99.90
33645;DHT22;19986;48.190;16.366;2023-11-18T14:46:24;9.90;99.90
33645;DHT22;19986;48.190;16.366;2023-11-18T14:48:50;10.00;99.90
33645;DHT22;19986;48.190;16.366;2023-11-18T14:51:17;9.90;99.90
33645;DHT22;19986;48.190;16.366;2023-11-18T14:53:43;9.90;99.90
33645;DHT22;19986;48.190;16.366;2023-11-18T14:56:10;9.80;99.90
33645;DHT22;19986;48.190;16.366;2023-11-18T14:58:36;9.80;99.90
33645;DHT22;19986;48.190;16.366;2023-11-18T15:01:02;9.90;99.90
33645;DHT22;19986;48.190;16.366;2023-11-18T15:03:28;9.80;99.90
33645;DHT22;19986;48.190;16.366;2023-11-18T15:05:56;9.80;99.90
33645;DHT22;19986;48.190;16.366;2023-11-18T15:08:22;9.80;99.90
33645;DHT22;19986;48.190;16.366;2023-11-18T15:10:48;9.80;99.90
33645;DHT22;19986;48.190;16.366;2023-11-18T15:13:14;9.70;99.90
33645;DHT22;19986;48.190;16.366;2023-11-18T15:15:44;9.70;99.90
33645;DHT22;19986;48.190;16.366;2023-11-18T15:18:13;9.70;99.90
33645;DHT22;19986;48.190;16.366;2023-11-18T15:20:43;9.70;99.90
33645;DHT22;19986;48.190;16.366;2023-11-18T15:23:12;9.80;99.90
33645;DHT22;19986;48.190;16.366;2023-11-18T15:25:39;9.80;99.90
33645;DHT22;19986;48.190;16.366;2023-11-18T15:28:05;9.80;99.90
33645;DHT22;19986;48.190;16.366;2023-11-18T15:30:39;9.80;99.90
33645;DHT22;19986;48.190;16.366;2023-11-18T15:33:06;9.80;99.90
33645;DHT22;19986;48.190;16.366;2023-11-18T15:35:39;9.80;99.90
33645;DHT22;19986;48.190;16.366;2023-11-18T15:38:07;9.80;99.90
33645;DHT22;19986;48.190;16.366;2023-11-18T15:40:40;9.80;99.90
33645;DHT22;19986;48.190;16.366;2023-11-18T15:43:07;9.80;99.90
33645;DHT22;19986;48.190;16.366;2023-11-18T15:45:35;9.80;99.90
33645;DHT22;19986;48.190;16.366;2023-11-18T15:48:02;9.80;99.90
33645;DHT22;19986;48.190;16.366;2023-11-18T15:50:32;9.70;99.90
33645;DHT22;19986;48.190;16.366;2023-11-18T15:53:01;9.70;99.90
33645;DHT22;19986;48.190;16.366;2023-11-18T15:55:28;9.70;99.90
33645;DHT22;19986;48.190;16.366;2023-11-18T15:57:54;9.70;99.90
33645;DHT22;19986;48.190;16.366;2023-11-18T16:00:25;9.70;99.90
33645;DHT22;19986;48.190;16.366;2023-11-18T16:02:53;9.70;99.90
33645;DHT22;19986;48.190;16.366;2023-11-18T16:05:21;9.70;99.90
33645;DHT22;19986;48.190;16.366;2023-11-18T16:07:49;9.60;99.90
33645;DHT22;19986;48.190;16.366;2023-11-18T16:10:21;9.60;99.90
33645;DHT22;19986;48.190;16.366;2023-11-18T16:12:59;9.60;99.90
33645;DHT22;19986;48.190;16.366;2023-11-18T16:15:26;9.70;99.90
33645;DHT22;19986;48.190;16.366;2023-11-18T16:17:54;9.60;99.90
33645;DHT22;19986;48.190;16.366;2023-11-18T16:20:21;9.60;99.90